sensor_id;sensor_type;location;lat;lon;timestamp;pressure;altitude;pressure_sealevel;temperature;humidity
60725;BME280;59881;36.722;-4.462;2023-01-25T00:01:21;101606.59;;;6.72;71.26
60725;BME280;59881;36.722;-4.462;2023-01-25T00:03:46;101298.16;;;4.90;71.19
60725;BME280;59881;36.722;-4.462;2023-01-25T00:06:12;101592.84;;;6.66;71.19
60725;BME280;59881;36.722;-4.462;2023-01-25T00:08:37;101595.38;;;6.69;70.83
60725;BME280;59881;36.722;-4.462;2023-01-25T00:11:03;101548.75;;;6.30;71.26
60725;BME280;59881;36.722;-4.462;2023-01-25T00:13:29;101722.00;;;6.66;71.08
60725;BME280;59881;36.722;-4.462;2023-01-25T00:16:02;101021.81;;;3.26;71.27
60725;BME280;59881;36.722;-4.462;2023-01-25T00:18:27;101542.31;;;6.40;71.20
60725;BME280;59881;36.722;-4.462;2023-01-25T00:20:53;101089.94;;;3.68;71.30
60725;BME280;59881;36.722;-4.462;2023-01-25T00:23:18;101570.47;;;6.57;71.41
60725;BME280;59881;36.722;-4.462;2023-01-25T00:25:44;101439.66;;;5.81;71.08
60725;BME280;59881;36.722;-4.462;2023-01-25T00:28:09;101452.69;;;5.83;71.40
60725;BME280;59881;36.722;-4.462;2023-01-25T00:30:35;101408.25;;;5.31;71.58
60725;BME280;59881;36.722;-4.462;2023-01-25T00:35:43;101679.72;;;6.53;71.72
60725;BME280;59881;36.722;-4.462;2023-01-25T00:38:26;101566.38;;;6.50;71.24
60725;BME280;59881;36.722;-4.462;2023-01-25T00:40:53;101543.19;;;6.39;71.25
60725;BME280;59881;36.722;-4.462;2023-01-25T00:43:18;101496.28;;;6.09;71.58
60725;BME280;59881;36.722;-4.462;2023-01-25T00:45:44;101562.09;;;6.47;71.22
60725;BME280;59881;36.722;-4.462;2023-01-25T00:48:10;101014.78;;;2.39;71.03
60725;BME280;59881;36.722;-4.462;2023-01-25T00:50:36;101478.13;;;6.05;71.37
60725;BME280;59881;36.722;-4.462;2023-01-25T00:53:02;101446.69;;;5.79;71.09
60725;BME280;59881;36.722;-4.462;2023-01-25T00:55:27;101040.94;;;3.25;71.01
60725;BME280;59881;36.722;-4.462;2023-01-25T00:57:53;101558.09;;;6.37;70.90
60725;BME280;59881;36.722;-4.462;2023-01-25T01:00:18;101512.81;;;6.10;70.79
60725;BME280;59881;36.722;-4.462;2023-01-25T01:02:44;101493.41;;;5.90;71.89
60725;BME280;59881;36.722;-4.462;2023-01-25T01:05:10;101554.88;;;6.29;72.47
60725;BME280;59881;36.722;-4.462;2023-01-25T01:07:35;101560.19;;;6.27;72.09
60725;BME280;59881;36.722;-4.462;2023-01-25T01:10:01;101554.19;;;6.24;72.42
60725;BME280;59881;36.722;-4.462;2023-01-25T01:12:27;101084.84;;;3.37;72.16
60725;BME280;59881;36.722;-4.462;2023-01-25T01:14:52;101423.72;;;5.37;72.78
60725;BME280;59881;36.722;-4.462;2023-01-25T01:17:18;101472.72;;;5.57;73.12
60725;BME280;59881;36.722;-4.462;2023-01-25T01:19:43;101454.56;;;5.53;72.82
60725;BME280;59881;36.722;-4.462;2023-01-25T01:22:09;101563.16;;;6.16;73.63
60725;BME280;59881;36.722;-4.462;2023-01-25T01:24:35;101053.59;;;3.07;73.38
60725;BME280;59881;36.722;-4.462;2023-01-25T01:27:00;101584.09;;;6.16;73.66
60725;BME280;59881;36.722;-4.462;2023-01-25T01:29:26;101629.53;;;6.14;73.84
60725;BME280;59881;36.722;-4.462;2023-01-25T01:31:51;100990.09;;;2.55;73.66
60725;BME280;59881;36.722;-4.462;2023-01-25T01:34:18;100843.63;;;1.62;73.74
60725;BME280;59881;36.722;-4.462;2023-01-25T01:36:44;101512.69;;;5.61;74.59
60725;BME280;59881;36.722;-4.462;2023-01-25T01:39:10;101264.63;;;3.95;74.48
60725;BME280;59881;36.722;-4.462;2023-01-25T01:41:36;101100.72;;;2.98;74.07
60725;BME280;59881;36.722;-4.462;2023-01-25T01:44:02;101002.59;;;2.41;74.49
60725;BME280;59881;36.722;-4.462;2023-01-25T01:46:36;101574.75;;;5.83;74.73
60725;BME280;59881;36.722;-4.462;2023-01-25T01:49:12;101582.47;;;5.86;75.50
60725;BME280;59881;36.722;-4.462;2023-01-25T01:52:19;101755.56;;;5.37;74.65
60725;BME280;59881;36.722;-4.462;2023-01-25T01:54:49;101198.25;;;3.47;74.70
60725;BME280;59881;36.722;-4.462;2023-01-25T01:57:38;101717.81;;;5.77;74.97
60725;BME280;59881;36.722;-4.462;2023-01-25T02:00:17;101518.00;;;5.31;75.06
60725;BME280;59881;36.722;-4.462;2023-01-25T02:02:45;101108.97;;;2.17;75.05
60725;BME280;59881;36.722;-4.462;2023-01-25T02:05:21;101458.94;;;4.97;75.75
60725;BME280;59881;36.722;-4.462;2023-01-25T02:07:50;101555.66;;;5.52;75.90
60725;BME280;59881;36.722;-4.462;2023-01-25T02:10:19;101167.81;;;3.20;74.46
60725;BME280;59881;36.722;-4.462;2023-01-25T02:12:46;101597.66;;;5.74;75.67
60725;BME280;59881;36.722;-4.462;2023-01-25T02:15:12;101592.53;;;5.71;75.47
60725;BME280;59881;36.722;-4.462;2023-01-25T02:17:38;101590.03;;;5.67;75.51
60725;BME280;59881;36.722;-4.462;2023-01-25T02:20:34;101593.47;;;5.69;76.01
60725;BME280;59881;36.722;-4.462;2023-01-25T02:23:28;101585.63;;;5.69;75.95
60725;BME280;59881;36.722;-4.462;2023-01-25T02:25:58;101144.81;;;3.04;75.72
60725;BME280;59881;36.722;-4.462;2023-01-25T02:30:57;101727.75;;;5.66;76.31
60725;BME280;59881;36.722;-4.462;2023-01-25T02:33:23;101100.69;;;2.68;75.58
60725;BME280;59881;36.722;-4.462;2023-01-25T02:35:57;101071.06;;;1.73;75.21
60725;BME280;59881;36.722;-4.462;2023-01-25T02:38:24;101513.22;;;4.88;75.36
60725;BME280;59881;36.722;-4.462;2023-01-25T02:40:57;101083.59;;;2.60;75.02
60725;BME280;59881;36.722;-4.462;2023-01-25T02:43:27;101419.09;;;4.63;74.96
60725;BME280;59881;36.722;-4.462;2023-01-25T02:46:06;101014.56;;;2.15;74.25
60725;BME280;59881;36.722;-4.462;2023-01-25T02:48:35;101541.69;;;5.25;74.00
60725;BME280;59881;36.722;-4.462;2023-01-25T02:51:01;101599.59;;;5.39;74.19
60725;BME280;59881;36.722;-4.462;2023-01-25T02:53:27;101516.72;;;4.87;74.23
60725;BME280;59881;36.722;-4.462;2023-01-25T02:55:52;101527.84;;;4.93;74.08
60725;BME280;59881;36.722;-4.462;2023-01-25T02:58:18;101510.13;;;4.73;73.63
60725;BME280;59881;36.722;-4.462;2023-01-25T03:00:44;101561.97;;;4.87;74.14
60725;BME280;59881;36.722;-4.462;2023-01-25T03:03:09;101545.44;;;4.87;74.41
60725;BME280;59881;36.722;-4.462;2023-01-25T03:05:35;101579.00;;;5.01;74.75
60725;BME280;59881;36.722;-4.462;2023-01-25T03:08:01;101434.13;;;3.93;74.38
60725;BME280;59881;36.722;-4.462;2023-01-25T03:10:27;101521.66;;;4.66;74.50
60725;BME280;59881;36.722;-4.462;2023-01-25T03:12:52;101112.19;;;1.93;75.17
60725;BME280;59881;36.722;-4.462;2023-01-25T03:15:18;101316.66;;;3.37;74.30
60725;BME280;59881;36.722;-4.462;2023-01-25T03:17:43;101055.75;;;1.96;74.90
60725;BME280;59881;36.722;-4.462;2023-01-25T03:20:09;101209.28;;;2.26;75.05
60725;BME280;59881;36.722;-4.462;2023-01-25T03:22:35;101587.25;;;5.16;75.26
60725;BME280;59881;36.722;-4.462;2023-01-25T03:25:01;101122.41;;;2.35;74.63
60725;BME280;59881;36.722;-4.462;2023-01-25T03:27:28;101588.22;;;5.12;74.53
60725;BME280;59881;36.722;-4.462;2023-01-25T03:29:54;101590.16;;;5.06;74.09
60725;BME280;59881;36.722;-4.462;2023-01-25T03:32:20;101511.69;;;4.49;74.53
60725;BME280;59881;36.722;-4.462;2023-01-25T03:34:45;101523.97;;;4.47;73.92
60725;BME280;59881;36.722;-4.462;2023-01-25T03:37:11;101453.06;;;4.00;74.59
60725;BME280;59881;36.722;-4.462;2023-01-25T03:39:37;100947.41;;;0.95;74.41
60725;BME280;59881;36.722;-4.462;2023-01-25T03:42:02;101596.69;;;4.91;75.28
60725;BME280;59881;36.722;-4.462;2023-01-25T03:44:28;100978.09;;;1.14;74.12
60725;BME280;59881;36.722;-4.462;2023-01-25T03:46:54;101523.38;;;4.36;74.78
60725;BME280;59881;36.722;-4.462;2023-01-25T03:49:19;101567.97;;;4.60;74.70
60725;BME280;59881;36.722;-4.462;2023-01-25T03:51:45;101495.00;;;4.25;75.23
60725;BME280;59881;36.722;-4.462;2023-01-25T03:54:11;101565.03;;;4.72;74.79
60725;BME280;59881;36.722;-4.462;2023-01-25T03:56:37;101444.94;;;4.11;74.70
60725;BME280;59881;36.722;-4.462;2023-01-25T03:59:02;101419.00;;;4.06;74.55
60725;BME280;59881;36.722;-4.462;2023-01-25T04:01:28;101584.69;;;5.13;74.66
60725;BME280;59881;36.722;-4.462;2023-01-25T04:03:54;101606.63;;;5.37;74.12
60725;BME280;59881;36.722;-4.462;2023-01-25T04:06:19;100987.44;;;1.58;73.74
60725;BME280;59881;36.722;-4.462;2023-01-25T04:08:45;101486.63;;;4.75;73.51
60725;BME280;59881;36.722;-4.462;2023-01-25T04:11:11;101454.09;;;4.57;72.90
60725;BME280;59881;36.722;-4.462;2023-01-25T04:13:37;101603.41;;;5.57;72.77
60725;BME280;59881;36.722;-4.462;2023-01-25T04:16:04;101591.25;;;5.56;72.98
60725;BME280;59881;36.722;-4.462;2023-01-25T04:18:29;101562.13;;;5.41;72.00
60725;BME280;59881;36.722;-4.462;2023-01-25T04:20:56;101622.66;;;5.55;72.20
60725;BME280;59881;36.722;-4.462;2023-01-25T04:23:23;101597.63;;;5.48;71.94
60725;BME280;59881;36.722;-4.462;2023-01-25T04:25:53;101160.66;;;2.28;71.58
60725;BME280;59881;36.722;-4.462;2023-01-25T04:28:19;101603.13;;;5.38;72.39
60725;BME280;59881;36.722;-4.462;2023-01-25T04:30:45;101116.09;;;2.43;72.20
60725;BME280;59881;36.722;-4.462;2023-01-25T04:33:10;101452.50;;;4.51;72.13
60725;BME280;59881;36.722;-4.462;2023-01-25T04:35:37;101590.00;;;5.40;72.51
60725;BME280;59881;36.722;-4.462;2023-01-25T04:38:03;100660.09;;;-0.37;71.80
60725;BME280;59881;36.722;-4.462;2023-01-25T04:40:29;101505.81;;;4.74;71.78
60725;BME280;59881;36.722;-4.462;2023-01-25T04:42:54;101582.38;;;5.04;72.51
60725;BME280;59881;36.722;-4.462;2023-01-25T04:45:21;101013.19;;;1.66;72.22
60725;BME280;59881;36.722;-4.462;2023-01-25T04:47:46;101024.25;;;1.74;72.33
60725;BME280;59881;36.722;-4.462;2023-01-25T04:50:12;101657.13;;;5.08;72.13
60725;BME280;59881;36.722;-4.462;2023-01-25T04:52:38;101483.94;;;4.47;72.33
60725;BME280;59881;36.722;-4.462;2023-01-25T04:55:03;101591.31;;;4.95;71.46
60725;BME280;59881;36.722;-4.462;2023-01-25T04:57:29;101544.38;;;4.63;72.05
60725;BME280;59881;36.722;-4.462;2023-01-25T04:59:54;101590.88;;;4.81;72.11
60725;BME280;59881;36.722;-4.462;2023-01-25T05:02:20;101176.28;;;2.28;71.83
60725;BME280;59881;36.722;-4.462;2023-01-25T05:04:45;101587.56;;;4.74;72.20
60725;BME280;59881;36.722;-4.462;2023-01-25T05:07:11;101524.25;;;4.37;71.93
60725;BME280;59881;36.722;-4.462;2023-01-25T05:09:36;101504.47;;;4.28;72.47
60725;BME280;59881;36.722;-4.462;2023-01-25T05:12:02;101589.09;;;4.82;72.57
60725;BME280;59881;36.722;-4.462;2023-01-25T05:14:28;101513.63;;;4.43;71.95
60725;BME280;59881;36.722;-4.462;2023-01-25T05:16:53;101474.34;;;4.16;72.36
60725;BME280;59881;36.722;-4.462;2023-01-25T05:19:19;101695.56;;;4.70;72.18
60725;BME280;59881;36.722;-4.462;2023-01-25T05:21:44;101459.63;;;4.15;71.79
60725;BME280;59881;36.722;-4.462;2023-01-25T05:24:26;101051.31;;;1.65;71.77
60725;BME280;59881;36.722;-4.462;2023-01-25T05:26:52;101594.88;;;4.93;72.19
60725;BME280;59881;36.722;-4.462;2023-01-25T05:29:36;101782.03;;;4.92;71.68
60725;BME280;59881;36.722;-4.462;2023-01-25T05:32:07;101601.00;;;4.92;71.45
60725;BME280;59881;36.722;-4.462;2023-01-25T05:34:34;101601.88;;;4.92;72.10
60725;BME280;59881;36.722;-4.462;2023-01-25T05:37:00;101453.03;;;4.02;71.21
60725;BME280;59881;36.722;-4.462;2023-01-25T05:39:26;101420.28;;;3.23;71.20
60725;BME280;59881;36.722;-4.462;2023-01-25T05:41:52;101554.75;;;4.66;71.64
60725;BME280;59881;36.722;-4.462;2023-01-25T05:44:18;101601.03;;;4.90;71.75
60725;BME280;59881;36.722;-4.462;2023-01-25T05:46:44;101708.19;;;4.53;71.04
60725;BME280;59881;36.722;-4.462;2023-01-25T05:49:09;101746.56;;;4.84;70.67
60725;BME280;59881;36.722;-4.462;2023-01-25T05:51:35;101558.66;;;4.49;70.78
60725;BME280;59881;36.722;-4.462;2023-01-25T05:54:03;101594.78;;;4.65;70.54
60725;BME280;59881;36.722;-4.462;2023-01-25T05:56:29;101445.47;;;3.58;70.62
60725;BME280;59881;36.722;-4.462;2023-01-25T05:58:56;101614.03;;;4.28;70.70
60725;BME280;59881;36.722;-4.462;2023-01-25T06:01:23;101598.72;;;4.48;71.43
60725;BME280;59881;36.722;-4.462;2023-01-25T06:03:48;101533.59;;;4.12;71.51
60725;BME280;59881;36.722;-4.462;2023-01-25T06:06:14;101108.19;;;1.39;70.48
60725;BME280;59881;36.722;-4.462;2023-01-25T06:08:40;101190.06;;;1.94;71.30
60725;BME280;59881;36.722;-4.462;2023-01-25T06:11:07;101763.38;;;4.38;71.20
60725;BME280;59881;36.722;-4.462;2023-01-25T06:13:32;101541.06;;;3.92;71.19
60725;BME280;59881;36.722;-4.462;2023-01-25T06:15:58;100669.75;;;-1.32;71.03
60725;BME280;59881;36.722;-4.462;2023-01-25T06:18:24;101481.13;;;3.56;71.99
60725;BME280;59881;36.722;-4.462;2023-01-25T06:20:50;100619.63;;;-1.73;71.20
60725;BME280;59881;36.722;-4.462;2023-01-25T06:23:15;101110.91;;;1.33;71.41
60725;BME280;59881;36.722;-4.462;2023-01-25T06:25:41;101495.09;;;3.53;71.18
60725;BME280;59881;36.722;-4.462;2023-01-25T06:28:07;101630.44;;;4.33;71.21
60725;BME280;59881;36.722;-4.462;2023-01-25T06:30:33;101810.44;;;4.33;71.11
60725;BME280;59881;36.722;-4.462;2023-01-25T06:32:59;100960.09;;;0.27;70.97
60725;BME280;59881;36.722;-4.462;2023-01-25T06:35:26;101165.97;;;1.49;70.84
60725;BME280;59881;36.722;-4.462;2023-01-25T06:37:54;101539.66;;;3.79;70.82
60725;BME280;59881;36.722;-4.462;2023-01-25T06:40:20;101644.06;;;4.43;70.82
60725;BME280;59881;36.722;-4.462;2023-01-25T06:42:46;101648.38;;;4.45;70.77
60725;BME280;59881;36.722;-4.462;2023-01-25T06:45:12;101099.13;;;1.18;70.24
60725;BME280;59881;36.722;-4.462;2023-01-25T06:47:38;101205.28;;;0.85;70.85
60725;BME280;59881;36.722;-4.462;2023-01-25T06:50:04;101444.75;;;3.17;70.64
60725;BME280;59881;36.722;-4.462;2023-01-25T06:52:29;101565.72;;;3.79;70.59
60725;BME280;59881;36.722;-4.462;2023-01-25T06:54:56;101589.72;;;3.91;71.33
60725;BME280;59881;36.722;-4.462;2023-01-25T06:57:22;101661.81;;;4.30;71.24
60725;BME280;59881;36.722;-4.462;2023-01-25T06:59:47;101578.81;;;3.76;71.76
60725;BME280;59881;36.722;-4.462;2023-01-25T07:02:14;101438.38;;;2.93;71.81
60725;BME280;59881;36.722;-4.462;2023-01-25T07:04:40;101679.06;;;4.35;72.05
60725;BME280;59881;36.722;-4.462;2023-01-25T07:07:08;101641.50;;;4.07;71.64
60725;BME280;59881;36.722;-4.462;2023-01-25T07:09:34;101572.41;;;3.89;71.26
60725;BME280;59881;36.722;-4.462;2023-01-25T07:12:00;101427.47;;;3.15;70.79
60725;BME280;59881;36.722;-4.462;2023-01-25T07:14:27;101453.75;;;3.40;70.65
60725;BME280;59881;36.722;-4.462;2023-01-25T07:16:52;101658.19;;;4.70;70.50
60725;BME280;59881;36.722;-4.462;2023-01-25T07:19:18;101304.81;;;2.55;70.05
60725;BME280;59881;36.722;-4.462;2023-01-25T07:21:43;101384.91;;;3.14;69.81
60725;BME280;59881;36.722;-4.462;2023-01-25T07:24:12;101546.63;;;4.12;69.36
60725;BME280;59881;36.722;-4.462;2023-01-25T07:26:38;101703.78;;;4.89;69.27
60725;BME280;59881;36.722;-4.462;2023-01-25T07:29:04;101586.94;;;4.33;68.86
60725;BME280;59881;36.722;-4.462;2023-01-25T07:31:29;101643.38;;;4.70;69.46
60725;BME280;59881;36.722;-4.462;2023-01-25T07:33:56;101186.72;;;1.91;69.23
60725;BME280;59881;36.722;-4.462;2023-01-25T07:36:23;101688.47;;;5.08;69.21
60725;BME280;59881;36.722;-4.462;2023-01-25T07:38:52;101583.78;;;4.53;69.34
60725;BME280;59881;36.722;-4.462;2023-01-25T07:41:19;101608.34;;;4.77;69.40
60725;BME280;59881;36.722;-4.462;2023-01-25T07:43:44;101854.56;;;5.15;69.59
60725;BME280;59881;36.722;-4.462;2023-01-25T07:46:11;101272.56;;;1.86;68.70
60725;BME280;59881;36.722;-4.462;2023-01-25T07:48:38;101709.84;;;5.82;68.42
60725;BME280;59881;36.722;-4.462;2023-01-25T07:51:06;101680.97;;;5.87;67.64
60725;BME280;59881;36.722;-4.462;2023-01-25T07:53:55;101714.31;;;6.08;66.21
60725;BME280;59881;36.722;-4.462;2023-01-25T07:56:26;101710.84;;;6.08;65.76
60725;BME280;59881;36.722;-4.462;2023-01-25T07:58:52;101692.72;;;6.28;65.23
60725;BME280;59881;36.722;-4.462;2023-01-25T08:01:20;101832.22;;;7.87;64.39
60725;BME280;59881;36.722;-4.462;2023-01-25T08:03:48;101223.13;;;7.96;60.03
60725;BME280;59881;36.722;-4.462;2023-01-25T08:06:14;101014.47;;;9.38;50.78
60725;BME280;59881;36.722;-4.462;2023-01-25T08:08:46;101679.50;;;15.23;43.78
60725;BME280;59881;36.722;-4.462;2023-01-25T08:11:26;101678.59;;;16.69;39.51
60725;BME280;59881;36.722;-4.462;2023-01-25T08:13:52;101680.91;;;17.75;36.64
60725;BME280;59881;36.722;-4.462;2023-01-25T08:16:20;101676.91;;;18.77;34.32
60725;BME280;59881;36.722;-4.462;2023-01-25T08:18:47;101754.03;;;19.01;32.88
60725;BME280;59881;36.722;-4.462;2023-01-25T08:21:13;101547.81;;;15.82;34.50
60725;BME280;59881;36.722;-4.462;2023-01-25T08:23:38;101726.38;;;14.59;38.07
60725;BME280;59881;36.722;-4.462;2023-01-25T08:26:06;101695.53;;;15.22;39.29
60725;BME280;59881;36.722;-4.462;2023-01-25T08:28:32;101402.56;;;14.63;37.04
60725;BME280;59881;36.722;-4.462;2023-01-25T08:31:10;101841.78;;;16.32;36.67
60725;BME280;59881;36.722;-4.462;2023-01-25T08:33:36;101756.59;;;15.22;38.29
60725;BME280;59881;36.722;-4.462;2023-01-25T08:36:02;101718.56;;;14.43;39.72
60725;BME280;59881;36.722;-4.462;2023-01-25T08:38:28;101641.06;;;13.31;40.75
60725;BME280;59881;36.722;-4.462;2023-01-25T08:40:54;101318.50;;;13.39;40.13
60725;BME280;59881;36.722;-4.462;2023-01-25T08:43:19;101638.84;;;19.16;32.91
60725;BME280;59881;36.722;-4.462;2023-01-25T08:45:45;101697.03;;;22.19;28.25
60725;BME280;59881;36.722;-4.462;2023-01-25T08:48:12;101536.03;;;22.88;25.94
60725;BME280;59881;36.722;-4.462;2023-01-25T08:50:45;101559.63;;;24.27;23.79
60725;BME280;59881;36.722;-4.462;2023-01-25T08:53:11;101751.75;;;26.03;22.30
60725;BME280;59881;36.722;-4.462;2023-01-25T08:55:37;101408.06;;;24.81;21.74
60725;BME280;59881;36.722;-4.462;2023-01-25T08:58:03;101450.31;;;25.95;20.85
60725;BME280;59881;36.722;-4.462;2023-01-25T09:00:28;101703.00;;;28.06;19.53
60725;BME280;59881;36.722;-4.462;2023-01-25T09:02:54;101641.00;;;28.18;19.45
60725;BME280;59881;36.722;-4.462;2023-01-25T09:05:19;101350.50;;;26.53;18.58
60725;BME280;59881;36.722;-4.462;2023-01-25T09:07:45;101527.66;;;28.15;18.21
60725;BME280;59881;36.722;-4.462;2023-01-25T09:10:10;101778.66;;;29.63;18.32
60725;BME280;59881;36.722;-4.462;2023-01-25T09:12:37;101782.06;;;30.34;17.37
60725;BME280;59881;36.722;-4.462;2023-01-25T09:15:02;101540.75;;;29.62;17.04
60725;BME280;59881;36.722;-4.462;2023-01-25T09:17:29;101729.13;;;31.03;16.22
60725;BME280;59881;36.722;-4.462;2023-01-25T09:19:55;101732.56;;;31.50;16.33
60725;BME280;59881;36.722;-4.462;2023-01-25T09:22:20;101217.84;;;28.96;16.15
60725;BME280;59881;36.722;-4.462;2023-01-25T09:24:46;101743.84;;;32.81;15.68
60725;BME280;59881;36.722;-4.462;2023-01-25T09:27:16;101732.22;;;33.47;15.22
60725;BME280;59881;36.722;-4.462;2023-01-25T09:29:42;101700.22;;;33.54;14.87
60725;BME280;59881;36.722;-4.462;2023-01-25T09:32:08;101729.84;;;34.53;14.63
60725;BME280;59881;36.722;-4.462;2023-01-25T09:34:33;101734.28;;;34.66;14.37
60725;BME280;59881;36.722;-4.462;2023-01-25T09:36:59;101736.50;;;35.04;14.04
60725;BME280;59881;36.722;-4.462;2023-01-25T09:39:24;101779.44;;;35.63;13.67
60725;BME280;59881;36.722;-4.462;2023-01-25T09:44:31;101732.28;;;36.74;13.10
60725;BME280;59881;36.722;-4.462;2023-01-25T09:47:28;101458.84;;;35.85;12.83
60725;BME280;59881;36.722;-4.462;2023-01-25T09:56:26;101738.19;;;40.09;11.11
60725;BME280;59881;36.722;-4.462;2023-01-25T09:58:57;101737.09;;;40.72;10.46
60725;BME280;59881;36.722;-4.462;2023-01-25T10:01:48;101405.41;;;38.97;10.24
60725;BME280;59881;36.722;-4.462;2023-01-25T10:04:21;101385.81;;;39.24;10.52
60725;BME280;59881;36.722;-4.462;2023-01-25T10:06:55;101737.75;;;41.73;9.80
60725;BME280;59881;36.722;-4.462;2023-01-25T10:12:22;101682.47;;;42.61;9.36
60725;BME280;59881;36.722;-4.462;2023-01-25T10:14:49;101730.03;;;43.92;8.58
60725;BME280;59881;36.722;-4.462;2023-01-25T10:20:21;101727.03;;;44.54;8.09
60725;BME280;59881;36.722;-4.462;2023-01-25T10:23:21;101349.69;;;42.68;8.47
60725;BME280;59881;36.722;-4.462;2023-01-25T10:25:45;101477.78;;;43.63;8.08
60725;BME280;59881;36.722;-4.462;2023-01-25T10:31:09;101729.34;;;45.80;7.98
60725;BME280;59881;36.722;-4.462;2023-01-25T10:33:42;101772.63;;;45.87;7.51
60725;BME280;59881;36.722;-4.462;2023-01-25T10:36:13;101726.16;;;45.96;7.81
60725;BME280;59881;36.722;-4.462;2023-01-25T10:38:42;101726.44;;;46.08;7.71
60725;BME280;59881;36.722;-4.462;2023-01-25T10:44:11;101364.22;;;43.80;7.61
60725;BME280;59881;36.722;-4.462;2023-01-25T10:47:04;101435.72;;;44.61;7.37
60725;BME280;59881;36.722;-4.462;2023-01-25T10:49:47;101724.09;;;46.33;7.40
60725;BME280;59881;36.722;-4.462;2023-01-25T10:52:16;101411.22;;;44.27;7.50
60725;BME280;59881;36.722;-4.462;2023-01-25T10:54:42;101772.00;;;46.12;7.15
60725;BME280;59881;36.722;-4.462;2023-01-25T10:57:13;101717.94;;;45.91;7.44
60725;BME280;59881;36.722;-4.462;2023-01-25T10:59:47;101699.75;;;45.62;7.64
60725;BME280;59881;36.722;-4.462;2023-01-25T11:02:43;101709.69;;;45.40;7.55
60725;BME280;59881;36.722;-4.462;2023-01-25T11:05:23;101709.09;;;45.16;7.80
60725;BME280;59881;36.722;-4.462;2023-01-25T11:07:48;101456.09;;;39.47;9.62
60725;BME280;59881;36.722;-4.462;2023-01-25T11:10:34;101737.75;;;31.58;15.54
60725;BME280;59881;36.722;-4.462;2023-01-25T11:15:51;101697.13;;;20.99;25.86
60725;BME280;59881;36.722;-4.462;2023-01-25T11:18:32;101108.06;;;15.44;28.58
60725;BME280;59881;36.722;-4.462;2023-01-25T11:21:22;101761.00;;;17.96;30.61
60725;BME280;59881;36.722;-4.462;2023-01-25T11:26:37;101675.47;;;16.40;33.11
60725;BME280;59881;36.722;-4.462;2023-01-25T11:31:50;101749.50;;;16.22;34.27
60725;BME280;59881;36.722;-4.462;2023-01-25T11:34:20;101664.16;;;15.52;34.51
60725;BME280;59881;36.722;-4.462;2023-01-25T11:42:56;101836.88;;;15.64;35.70
60725;BME280;59881;36.722;-4.462;2023-01-25T11:45:19;101740.00;;;15.44;35.76
60725;BME280;59881;36.722;-4.462;2023-01-25T11:48:15;101749.47;;;15.35;36.19
60725;BME280;59881;36.722;-4.462;2023-01-25T11:50:51;101692.13;;;14.94;36.10
60725;BME280;59881;36.722;-4.462;2023-01-25T11:59:00;101724.19;;;14.91;36.35
60725;BME280;59881;36.722;-4.462;2023-01-25T12:01:44;101581.59;;;13.36;36.88
60725;BME280;59881;36.722;-4.462;2023-01-25T12:10:03;101705.31;;;14.70;36.62
60725;BME280;59881;36.722;-4.462;2023-01-25T12:15:24;101703.84;;;14.52;36.51
60725;BME280;59881;36.722;-4.462;2023-01-25T12:31:59;101654.06;;;13.05;41.51
60725;BME280;59881;36.722;-4.462;2023-01-25T12:34:37;101655.56;;;12.95;42.12
60725;BME280;59881;36.722;-4.462;2023-01-25T12:37:34;101566.19;;;12.28;42.60
60725;BME280;59881;36.722;-4.462;2023-01-25T12:40:00;101542.28;;;12.01;42.33
60725;BME280;59881;36.722;-4.462;2023-01-25T12:42:39;101694.47;;;12.78;41.75
60725;BME280;59881;36.722;-4.462;2023-01-25T12:45:25;101679.25;;;12.68;42.16
60725;BME280;59881;36.722;-4.462;2023-01-25T12:47:58;101682.19;;;12.77;42.47
60725;BME280;59881;36.722;-4.462;2023-01-25T12:53:12;101667.56;;;12.72;41.66
60725;BME280;59881;36.722;-4.462;2023-01-25T12:55:42;101673.13;;;12.81;40.97
60725;BME280;59881;36.722;-4.462;2023-01-25T13:01:24;101654.56;;;12.97;39.46
60725;BME280;59881;36.722;-4.462;2023-01-25T13:04:17;101657.19;;;12.83;39.50
60725;BME280;59881;36.722;-4.462;2023-01-25T13:07:11;101876.91;;;12.94;39.66
60725;BME280;59881;36.722;-4.462;2023-01-25T13:10:02;101617.13;;;12.89;39.24
60725;BME280;59881;36.722;-4.462;2023-01-25T13:12:49;101414.78;;;11.69;39.55
60725;BME280;59881;36.722;-4.462;2023-01-25T13:15:53;101638.66;;;13.12;39.25
60725;BME280;59881;36.722;-4.462;2023-01-25T13:20:59;101636.13;;;12.96;39.76
60725;BME280;59881;36.722;-4.462;2023-01-25T13:23:35;101643.31;;;12.94;39.59
60725;BME280;59881;36.722;-4.462;2023-01-25T13:28:46;101637.34;;;12.76;39.66
60725;BME280;59881;36.722;-4.462;2023-01-25T13:34:09;101644.47;;;12.59;39.30
60725;BME280;59881;36.722;-4.462;2023-01-25T13:42:04;101152.03;;;10.02;40.01
60725;BME280;59881;36.722;-4.462;2023-01-25T13:44:44;101670.41;;;12.38;39.66
60725;BME280;59881;36.722;-4.462;2023-01-25T13:47:13;101063.44;;;9.87;39.90
60725;BME280;59881;36.722;-4.462;2023-01-25T13:52:26;101634.00;;;13.58;37.98
60725;BME280;59881;36.722;-4.462;2023-01-25T13:54:57;101730.63;;;13.65;37.57
60725;BME280;59881;36.722;-4.462;2023-01-25T13:57:30;101062.56;;;10.32;37.42
60725;BME280;59881;36.722;-4.462;2023-01-25T14:00:00;101633.16;;;13.58;37.12
60725;BME280;59881;36.722;-4.462;2023-01-25T14:02:28;101593.03;;;13.22;37.07
60725;BME280;59881;36.722;-4.462;2023-01-25T14:04:55;101627.41;;;13.37;37.43
60725;BME280;59881;36.722;-4.462;2023-01-25T14:07:29;101699.69;;;12.80;37.97
60725;BME280;59881;36.722;-4.462;2023-01-25T14:09:57;101631.75;;;13.23;37.67
60725;BME280;59881;36.722;-4.462;2023-01-25T14:12:35;101589.66;;;12.92;38.17
60725;BME280;59881;36.722;-4.462;2023-01-25T14:15:23;101629.69;;;13.14;38.56
60725;BME280;59881;36.722;-4.462;2023-01-25T14:20:33;101504.78;;;12.39;39.95
60725;BME280;59881;36.722;-4.462;2023-01-25T14:22:58;101508.84;;;12.45;40.13
60725;BME280;59881;36.722;-4.462;2023-01-25T14:25:24;101622.22;;;13.21;39.77
60725;BME280;59881;36.722;-4.462;2023-01-25T14:27:58;101622.22;;;13.21;40.36
60725;BME280;59881;36.722;-4.462;2023-01-25T14:30:30;101630.25;;;13.19;39.75
60725;BME280;59881;36.722;-4.462;2023-01-25T14:35:43;101641.78;;;13.18;39.63